Time;durP1;ratioP1;P1;durP2;ratioP2;P2;SDS_P1;SDS_P2;PMS_P1;PMS_P2;Temp;Humidity;BMP_temperature;BMP_pressure;BME280_temperature;BME280_humidity;BME280_pressure;Samples;Min_cycle;Max_cycle;Signal;HPM_P1;HPM_P2
2022/05/14 00:02:14;;;;;;;;;;;23.60;41.20;;;;;;6181083;28;19932;-53
2022/05/14 00:05:17;;;;;;;;;;;23.40;41.10;;;;;;6182518;28;19980;-54
2022/05/14 00:08:18;;;;;;;;;;;23.30;41.00;;;;;;6170622;28;19924;-51
2022/05/14 00:14:36;;;;;;;;;;;23.60;41.20;;;;;;6184982;28;20130;-54
2022/05/14 00:17:38;;;;;;;;;;;23.30;41.10;;;;;;6183468;28;19932;-54
2022/05/14 00:20:40;;;;;;;;;;;23.70;41.40;;;;;;6189769;28;20051;-54
2022/05/14 00:23:41;;;;;;;;;;;23.50;41.80;;;;;;6182355;28;19925;-55
2022/05/14 00:26:43;;;;;;;;;;;23.40;41.20;;;;;;6182400;28;20756;-53
2022/05/14 00:29:45;;;;;;;;;;;23.70;41.30;;;;;;6184750;28;19979;-51
2022/05/14 00:32:47;;;;;;;;;;;23.30;41.10;;;;;;6188077;28;20761;-54
2022/05/14 00:35:48;;;;;;;;;;;23.10;41.00;;;;;;6183400;28;19951;-54
2022/05/14 00:38:51;;;;;;;;;;;23.50;41.20;;;;;;6183404;28;21000;-54
2022/05/14 00:41:53;;;;;;;;;;;23.80;41.40;;;;;;6183539;28;20039;-52
2022/05/14 00:44:55;;;;;;;;;;;23.50;41.20;;;;;;6184020;28;19935;-54
2022/05/14 00:47:58;;;;;;;;;;;23.30;41.10;;;;;;6185535;28;19935;-54
2022/05/14 00:50:59;;;;;;;;;;;23.40;41.20;;;;;;6190060;28;19925;-55
2022/05/14 00:54:03;;;;;;;;;;;23.10;41.10;;;;;;6185256;28;19991;-53
2022/05/14 00:57:07;;;;;;;;;;;23.40;41.20;;;;;;6167822;28;20870;-53
2022/05/14 01:00:10;;;;;;;;;;;23.20;41.10;;;;;;6182615;28;19925;-52
2022/05/14 01:03:12;;;;;;;;;;;23.20;41.10;;;;;;6184045;28;20844;-53
2022/05/14 01:06:14;;;;;;;;;;;23.20;41.10;;;;;;6180377;28;19921;-52
2022/05/14 01:09:16;;;;;;;;;;;23.50;41.40;;;;;;6162910;28;19925;-53
2022/05/14 01:12:19;;;;;;;;;;;23.60;41.40;;;;;;6182633;28;19933;-53
2022/05/14 01:15:23;;;;;;;;;;;23.20;41.20;;;;;;6165564;28;19939;-51
2022/05/14 01:18:27;;;;;;;;;;;23.20;41.20;;;;;;6182138;28;19936;-52
2022/05/14 01:21:32;;;;;;;;;;;23.20;41.20;;;;;;6183862;28;20002;-56
2022/05/14 01:27:50;;;;;;;;;;;23.30;41.30;;;;;;6188143;28;20103;-54
2022/05/14 01:30:56;;;;;;;;;;;23.40;41.30;;;;;;6187976;28;19929;-54
2022/05/14 01:33:59;;;;;;;;;;;23.50;41.40;;;;;;6171741;28;19929;-56
2022/05/14 01:37:01;;;;;;;;;;;23.10;41.30;;;;;;6188696;28;19921;-52
2022/05/14 01:40:05;;;;;;;;;;;23.40;41.40;;;;;;6170684;28;19936;-56
2022/05/14 01:43:07;;;;;;;;;;;23.20;41.30;;;;;;6189478;28;19929;-55
2022/05/14 01:46:08;;;;;;;;;;;23.20;41.30;;;;;;6191039;28;19989;-55
2022/05/14 01:49:10;;;;;;;;;;;23.10;41.30;;;;;;6165890;28;19921;-53
2022/05/14 01:52:12;;;;;;;;;;;23.10;41.30;;;;;;6164373;28;19999;-53
2022/05/14 01:55:13;;;;;;;;;;;23.30;41.50;;;;;;6184883;28;20731;-54
2022/05/14 02:01:34;;;;;;;;;;;23.00;41.20;;;;;;6183634;28;19968;-52
2022/05/14 02:04:36;;;;;;;;;;;23.20;41.40;;;;;;6168421;28;19925;-54
2022/05/14 02:07:38;;;;;;;;;;;22.90;41.20;;;;;;6178981;28;19928;-55
2022/05/14 02:10:40;;;;;;;;;;;23.40;41.50;;;;;;6180300;28;20122;-51
2022/05/14 02:13:42;;;;;;;;;;;23.30;41.40;;;;;;6180571;28;19921;-54
2022/05/14 02:16:44;;;;;;;;;;;23.30;41.40;;;;;;6147727;28;20480;-53
2022/05/14 02:19:47;;;;;;;;;;;23.00;41.40;;;;;;6176606;28;19929;-55
2022/05/14 02:22:49;;;;;;;;;;;23.20;41.50;;;;;;6181019;28;19936;-53
2022/05/14 02:25:50;;;;;;;;;;;23.30;41.60;;;;;;6180310;28;19928;-55
2022/05/14 02:28:52;;;;;;;;;;;23.60;41.60;;;;;;6181026;28;21027;-56
2022/05/14 02:31:54;;;;;;;;;;;23.00;41.30;;;;;;6180208;28;19925;-56
2022/05/14 02:34:57;;;;;;;;;;;23.10;41.40;;;;;;6182580;28;20132;-57
2022/05/14 02:37:59;;;;;;;;;;;23.00;41.30;;;;;;6167276;28;19925;-56
2022/05/14 02:41:01;;;;;;;;;;;23.30;41.40;;;;;;6174089;28;20230;-54
2022/05/14 02:44:03;;;;;;;;;;;22.90;41.30;;;;;;6174151;28;19928;-51
2022/05/14 02:47:04;;;;;;;;;;;23.20;41.50;;;;;;6173625;28;19929;-53
2022/05/14 02:50:07;;;;;;;;;;;22.90;41.30;;;;;;6170934;28;20300;-53
2022/05/14 02:53:09;;;;;;;;;;;23.40;41.60;;;;;;6176368;28;20057;-53
2022/05/14 02:56:10;;;;;;;;;;;22.60;41.20;;;;;;6153998;28;20046;-55
2022/05/14 02:59:12;;;;;;;;;;;23.20;41.50;;;;;;6174520;28;20029;-54
2022/05/14 03:02:14;;;;;;;;;;;22.80;41.30;;;;;;6170814;28;20452;-56
2022/05/14 03:05:18;;;;;;;;;;;23.30;41.60;;;;;;6170059;28;20433;-55
2022/05/14 03:08:19;;;;;;;;;;;22.90;41.40;;;;;;6173021;28;20141;-54
2022/05/14 03:11:21;;;;;;;;;;;23.10;41.40;;;;;;6173503;28;20163;-55
2022/05/14 03:14:23;;;;;;;;;;;23.30;41.60;;;;;;6176204;28;20106;-54
2022/05/14 03:17:24;;;;;;;;;;;22.90;41.30;;;;;;6172046;28;20741;-52
2022/05/14 03:20:26;;;;;;;;;;;23.00;41.40;;;;;;6166688;28;20122;-52
2022/05/14 03:23:28;;;;;;;;;;;23.10;41.50;;;;;;6167366;28;19980;-55
2022/05/14 03:26:30;;;;;;;;;;;22.70;41.30;;;;;;6172250;28;19940;-53
2022/05/14 03:29:32;;;;;;;;;;;22.90;41.30;;;;;;6152207;28;19952;-51
2022/05/14 03:32:33;;;;;;;;;;;22.70;41.30;;;;;;6172090;28;20644;-55
2022/05/14 03:35:35;;;;;;;;;;;23.20;41.50;;;;;;6173749;28;20843;-53
2022/05/14 03:38:37;;;;;;;;;;;22.80;41.30;;;;;;6171484;28;19926;-52
2022/05/14 03:41:39;;;;;;;;;;;23.20;41.50;;;;;;6167979;28;19925;-54
2022/05/14 03:44:41;;;;;;;;;;;23.10;41.50;;;;;;6171309;28;19932;-52
2022/05/14 03:47:43;;;;;;;;;;;22.90;41.40;;;;;;6171338;28;20403;-56
2022/05/14 03:50:44;;;;;;;;;;;22.70;41.30;;;;;;6170960;28;19931;-55
2022/05/14 03:53:47;;;;;;;;;;;23.30;41.60;;;;;;6172371;28;20227;-54
2022/05/14 03:56:49;;;;;;;;;;;22.80;41.40;;;;;;6168337;28;20091;-55
2022/05/14 03:59:51;;;;;;;;;;;22.90;41.40;;;;;;6173515;28;19937;-55
2022/05/14 04:02:52;;;;;;;;;;;22.70;41.20;;;;;;6171104;28;20447;-53
2022/05/14 04:05:54;;;;;;;;;;;23.00;41.40;;;;;;6171267;28;20366;-54
2022/05/14 04:08:56;;;;;;;;;;;22.70;41.30;;;;;;6168870;28;19928;-52
2022/05/14 04:11:59;;;;;;;;;;;23.10;41.50;;;;;;6170616;28;20503;-52
2022/05/14 04:15:01;;;;;;;;;;;23.10;41.50;;;;;;6171118;28;20304;-55
2022/05/14 04:18:02;;;;;;;;;;;22.80;41.30;;;;;;6167781;28;20383;-54
2022/05/14 04:21:03;;;;;;;;;;;22.90;41.40;;;;;;6167422;28;20217;-54
2022/05/14 04:24:05;;;;;;;;;;;23.00;41.50;;;;;;6167004;28;20481;-55
2022/05/14 04:27:07;;;;;;;;;;;23.10;41.40;;;;;;6163745;28;20209;-51
2022/05/14 04:30:10;;;;;;;;;;;23.10;41.50;;;;;;6165674;28;20151;-53
2022/05/14 04:33:12;;;;;;;;;;;23.10;41.40;;;;;;6164333;28;20167;-54
2022/05/14 04:36:13;;;;;;;;;;;23.30;41.60;;;;;;6167693;28;20039;-54
2022/05/14 04:39:15;;;;;;;;;;;23.30;41.60;;;;;;6160756;28;19924;-55
2022/05/14 04:42:16;;;;;;;;;;;23.10;41.50;;;;;;6162316;28;20327;-55
2022/05/14 04:45:19;;;;;;;;;;;22.90;41.40;;;;;;6160112;28;20749;-52
2022/05/14 04:48:20;;;;;;;;;;;23.10;41.50;;;;;;6163903;28;20393;-53
2022/05/14 04:51:22;;;;;;;;;;;22.70;41.30;;;;;;6169014;28;19940;-55
2022/05/14 04:54:24;;;;;;;;;;;22.90;41.30;;;;;;6160704;28;20393;-54
2022/05/14 04:57:26;;;;;;;;;;;23.00;41.50;;;;;;6162608;28;19987;-55
2022/05/14 05:00:28;;;;;;;;;;;23.00;41.50;;;;;;6163072;28;20800;-51
2022/05/14 05:03:29;;;;;;;;;;;23.10;41.60;;;;;;6166266;28;19929;-54
2022/05/14 05:06:34;;;;;;;;;;;23.10;41.50;;;;;;6170435;28;19996;-55
2022/05/14 05:09:37;;;;;;;;;;;23.20;41.60;;;;;;6171854;28;19925;-55
2022/05/14 05:12:38;;;;;;;;;;;23.10;41.60;;;;;;6170328;28;20756;-56
2022/05/14 05:15:41;;;;;;;;;;;23.30;41.60;;;;;;6171554;28;19944;-56
2022/05/14 05:18:42;;;;;;;;;;;23.10;41.60;;;;;;6153303;28;19965;-55
2022/05/14 05:21:43;;;;;;;;;;;22.80;41.50;;;;;;6172278;28;20265;-53
2022/05/14 05:24:46;;;;;;;;;;;23.10;41.60;;;;;;6171581;28;20078;-54
2022/05/14 05:27:47;;;;;;;;;;;22.90;41.50;;;;;;6170003;28;20036;-53
2022/05/14 05:30:49;;;;;;;;;;;23.10;41.60;;;;;;6171357;28;20047;-53
2022/05/14 05:33:50;;;;;;;;;;;22.70;41.40;;;;;;6169706;28;20355;-55
2022/05/14 05:36:53;;;;;;;;;;;23.00;41.60;;;;;;6170272;28;20245;-53
2022/05/14 05:39:54;;;;;;;;;;;23.00;41.60;;;;;;6170667;28;20491;-55
2022/05/14 05:42:56;;;;;;;;;;;22.80;41.50;;;;;;6161908;28;19959;-54
2022/05/14 05:45:59;;;;;;;;;;;23.20;41.70;;;;;;6168822;28;20415;-52
2022/05/14 05:49:00;;;;;;;;;;;22.90;41.50;;;;;;6170304;28;20324;-54
2022/05/14 05:52:01;;;;;;;;;;;22.70;41.50;;;;;;6175264;28;20790;-53
2022/05/14 05:58:19;;;;;;;;;;;23.00;41.50;;;;;;6169041;28;20133;-53
2022/05/14 06:01:21;;;;;;;;;;;23.10;41.60;;;;;;6173376;28;20898;-52
2022/05/14 06:04:23;;;;;;;;;;;23.10;41.60;;;;;;6164877;28;19933;-52
2022/05/14 06:07:25;;;;;;;;;;;22.70;41.40;;;;;;6163832;28;20903;-54
2022/05/14 06:10:26;;;;;;;;;;;23.40;41.80;;;;;;6166544;28;20211;-51
2022/05/14 06:13:27;;;;;;;;;;;23.00;41.60;;;;;;6169322;28;20422;-53
2022/05/14 06:16:29;;;;;;;;;;;23.20;41.70;;;;;;6171323;28;20193;-56
2022/05/14 06:19:31;;;;;;;;;;;23.10;41.60;;;;;;6168099;28;19989;-54
2022/05/14 06:22:32;;;;;;;;;;;22.70;41.50;;;;;;6165962;28;19936;-52
2022/05/14 06:25:34;;;;;;;;;;;22.80;41.50;;;;;;6167133;28;19928;-56
2022/05/14 06:28:35;;;;;;;;;;;22.60;41.40;;;;;;6162100;28;19971;-52
2022/05/14 06:31:38;;;;;;;;;;;22.90;41.50;;;;;;6167842;28;19932;-52
2022/05/14 06:34:40;;;;;;;;;;;23.10;41.70;;;;;;6175855;28;19933;-55
2022/05/14 06:37:41;;;;;;;;;;;23.10;41.60;;;;;;6165900;28;20790;-53
2022/05/14 06:40:43;;;;;;;;;;;23.00;41.60;;;;;;6159736;28;19998;-53
2022/05/14 06:43:44;;;;;;;;;;;23.00;41.50;;;;;;6164369;28;19929;-53
2022/05/14 06:46:46;;;;;;;;;;;22.60;41.80;;;;;;6167311;28;19929;-54
2022/05/14 06:49:48;;;;;;;;;;;22.70;41.40;;;;;;6149813;28;20172;-53
2022/05/14 06:52:50;;;;;;;;;;;23.00;41.60;;;;;;6170055;28;19995;-52
2022/05/14 06:55:53;;;;;;;;;;;23.10;41.60;;;;;;6170683;28;19955;-51
2022/05/14 06:58:55;;;;;;;;;;;22.70;41.40;;;;;;6165696;28;19925;-51
2022/05/14 07:01:57;;;;;;;;;;;23.10;41.60;;;;;;6172790;28;20229;-52
2022/05/14 07:08:16;;;;;;;;;;;22.90;41.40;;;;;;6164108;28;20252;-54
2022/05/14 07:11:24;;;;;;;;;;;23.10;41.60;;;;;;6167848;28;19957;-54
2022/05/14 07:14:26;;;;;;;;;;;23.00;41.50;;;;;;6165235;28;20311;-51
2022/05/14 07:17:28;;;;;;;;;;;23.20;41.60;;;;;;6169202;28;19925;-55
2022/05/14 07:20:29;;;;;;;;;;;23.10;41.50;;;;;;6167960;28;20978;-56
2022/05/14 07:23:31;;;;;;;;;;;22.70;41.40;;;;;;6148178;28;19952;-52
2022/05/14 07:26:34;;;;;;;;;;;23.00;41.50;;;;;;6168505;28;20460;-54
2022/05/14 07:29:35;;;;;;;;;;;23.20;41.60;;;;;;6163717;28;20581;-56
2022/05/14 07:32:37;;;;;;;;;;;23.10;41.50;;;;;;6171344;28;19964;-52
2022/05/14 07:35:40;;;;;;;;;;;22.80;41.30;;;;;;6169218;28;19940;-55
2022/05/14 07:38:42;;;;;;;;;;;22.90;41.40;;;;;;6168852;28;20876;-53
2022/05/14 07:41:44;;;;;;;;;;;23.10;41.50;;;;;;6163583;28;19975;-51
2022/05/14 07:44:48;;;;;;;;;;;23.00;41.40;;;;;;6164929;28;20221;-54
2022/05/14 07:47:51;;;;;;;;;;;23.20;41.50;;;;;;6170142;28;20039;-50
2022/05/14 07:50:52;;;;;;;;;;;23.20;41.60;;;;;;6165924;28;19925;-55
2022/05/14 07:53:54;;;;;;;;;;;23.20;41.50;;;;;;6171148;28;19961;-54
2022/05/14 07:56:55;;;;;;;;;;;23.00;41.40;;;;;;6169411;28;20248;-52
2022/05/14 07:59:57;;;;;;;;;;;23.10;41.50;;;;;;6166948;28;20114;-54
2022/05/14 08:03:01;;;;;;;;;;;23.20;41.50;;;;;;6168540;28;19933;-55
2022/05/14 08:06:02;;;;;;;;;;;23.30;41.50;;;;;;6165059;28;20052;-55
2022/05/14 08:09:05;;;;;;;;;;;23.30;41.60;;;;;;6164183;28;19929;-53
2022/05/14 08:12:06;;;;;;;;;;;23.20;41.50;;;;;;6171777;28;20201;-53
2022/05/14 08:15:09;;;;;;;;;;;23.30;41.50;;;;;;6170598;28;20457;-53
2022/05/14 08:18:12;;;;;;;;;;;23.40;41.60;;;;;;6140980;28;20122;-51
2022/05/14 08:24:34;;;;;;;;;;;23.20;41.50;;;;;;6171220;28;20051;-52
2022/05/14 08:27:44;;;;;;;;;;;23.40;41.60;;;;;;6166519;28;20746;-53
2022/05/14 08:30:46;;;;;;;;;;;23.30;41.50;;;;;;6167341;28;19968;-52
2022/05/14 08:33:48;;;;;;;;;;;23.30;41.50;;;;;;6150853;28;20494;-50
2022/05/14 08:36:49;;;;;;;;;;;23.50;41.60;;;;;;6174492;28;19969;-52
2022/05/14 08:39:51;;;;;;;;;;;23.20;41.50;;;;;;6177685;28;20257;-53
2022/05/14 08:42:54;;;;;;;;;;;23.30;41.50;;;;;;6167159;28;20030;-54
2022/05/14 08:45:59;;;;;;;;;;;23.40;41.50;;;;;;6170703;28;20039;-54
2022/05/14 08:49:04;;;;;;;;;;;23.40;41.60;;;;;;6168231;28;19991;-52
2022/05/14 08:52:09;;;;;;;;;;;23.40;41.50;;;;;;6173839;28;20062;-50
2022/05/14 08:55:14;;;;;;;;;;;23.50;41.60;;;;;;6146875;28;20630;-51
2022/05/14 08:58:21;;;;;;;;;;;23.50;41.50;;;;;;6171301;28;20321;-53
2022/05/14 09:01:24;;;;;;;;;;;23.50;41.50;;;;;;6168715;28;20171;-52
2022/05/14 09:04:26;;;;;;;;;;;23.20;41.40;;;;;;6154133;28;19929;-50
2022/05/14 09:07:28;;;;;;;;;;;23.10;41.30;;;;;;6168699;28;19928;-51
2022/05/14 09:10:30;;;;;;;;;;;23.40;41.50;;;;;;6169200;28;20060;-51
2022/05/14 09:13:40;;;;;;;;;;;23.30;41.40;;;;;;6170941;28;20159;-51
2022/05/14 09:16:42;;;;;;;;;;;23.30;41.40;;;;;;6153300;28;20547;-51
2022/05/14 09:19:44;;;;;;;;;;;23.40;41.40;;;;;;6167842;28;20134;-52
2022/05/14 09:22:52;;;;;;;;;;;23.80;41.60;;;;;;6169469;28;19924;-52
2022/05/14 09:25:53;;;;;;;;;;;23.10;41.30;;;;;;6170013;28;19965;-54
2022/05/14 09:28:55;;;;;;;;;;;23.50;41.40;;;;;;6174166;28;20727;-53
2022/05/14 09:31:59;;;;;;;;;;;23.80;41.60;;;;;;6155452;28;20263;-52
2022/05/14 09:35:09;;;;;;;;;;;23.40;41.40;;;;;;6150172;28;19980;-52
2022/05/14 09:38:26;;;;;;;;;;;23.60;41.40;;;;;;6141973;28;20141;-51
2022/05/14 09:41:28;;;;;;;;;;;23.40;41.40;;;;;;6170585;28;20140;-51
2022/05/14 09:44:34;;;;;;;;;;;23.90;41.70;;;;;;6165498;28;20381;-52
2022/05/14 09:47:36;;;;;;;;;;;23.70;41.50;;;;;;6152882;28;20211;-50
2022/05/14 09:50:39;;;;;;;;;;;23.70;41.50;;;;;;6174196;28;20260;-52
2022/05/14 09:53:42;;;;;;;;;;;23.70;41.50;;;;;;6170629;28;20226;-52
2022/05/14 09:56:49;;;;;;;;;;;23.40;41.30;;;;;;6153825;28;20003;-52
2022/05/14 10:00:00;;;;;;;;;;;23.60;41.40;;;;;;6174267;28;20479;-52
2022/05/14 10:03:07;;;;;;;;;;;23.40;41.30;;;;;;6154750;28;19964;-51
2022/05/14 10:06:18;;;;;;;;;;;23.50;41.30;;;;;;6168691;28;20250;-50
2022/05/14 10:09:28;;;;;;;;;;;23.50;41.30;;;;;;6159015;28;19999;-54
2022/05/14 10:12:33;;;;;;;;;;;23.60;41.40;;;;;;6161324;28;20232;-52
2022/05/14 10:15:37;;;;;;;;;;;23.80;41.40;;;;;;6136487;28;19929;-51
2022/05/14 10:18:48;;;;;;;;;;;23.80;41.40;;;;;;6170323;28;19925;-50
2022/05/14 10:21:57;;;;;;;;;;;23.70;41.40;;;;;;6170821;28;20745;-53
2022/05/14 10:28:23;;;;;;;;;;;23.80;41.40;;;;;;6153018;28;20036;-51
2022/05/14 10:31:28;;;;;;;;;;;23.90;41.60;;;;;;6170770;28;19933;-53
2022/05/14 10:34:36;;;;;;;;;;;23.50;41.30;;;;;;6161105;28;20023;-52
2022/05/14 10:37:43;;;;;;;;;;;23.80;41.50;;;;;;6171052;28;20237;-50
2022/05/14 10:40:47;;;;;;;;;;;23.50;41.40;;;;;;6151852;28;19933;-52
2022/05/14 10:43:52;;;;;;;;;;;23.90;41.50;;;;;;6152245;28;20247;-49
2022/05/14 10:46:54;;;;;;;;;;;23.70;41.50;;;;;;6150984;28;20014;-51
2022/05/14 10:49:59;;;;;;;;;;;23.80;41.50;;;;;;6172297;28;19925;-50
2022/05/14 10:53:05;;;;;;;;;;;23.60;41.40;;;;;;6173796;28;20048;-50
2022/05/14 10:56:09;;;;;;;;;;;23.80;41.50;;;;;;6172543;28;20518;-53
2022/05/14 10:59:12;;;;;;;;;;;24.00;41.50;;;;;;6171425;28;19987;-52
2022/05/14 11:02:23;;;;;;;;;;;23.70;41.40;;;;;;6159130;28;19956;-53
2022/05/14 11:05:26;;;;;;;;;;;23.80;41.50;;;;;;6173755;28;20234;-50
2022/05/14 11:08:29;;;;;;;;;;;24.10;41.60;;;;;;6174623;28;20171;-53
2022/05/14 11:11:32;;;;;;;;;;;24.00;41.60;;;;;;6167615;28;20149;-50
2022/05/14 11:14:40;;;;;;;;;;;23.90;41.50;;;;;;6168756;28;20798;-50
2022/05/14 11:17:41;;;;;;;;;;;23.90;41.50;;;;;;6162528;28;19929;-50
2022/05/14 11:20:52;;;;;;;;;;;23.60;41.40;;;;;;6162222;28;20230;-52
2022/05/14 11:23:55;;;;;;;;;;;23.70;41.40;;;;;;6174743;28;20291;-51
2022/05/14 11:26:57;;;;;;;;;;;23.70;41.50;;;;;;6177232;28;20411;-52
2022/05/14 11:30:01;;;;;;;;;;;23.50;41.30;;;;;;6172645;28;20844;-51
2022/05/14 11:33:04;;;;;;;;;;;24.30;41.70;;;;;;6172419;28;20235;-52
2022/05/14 11:36:20;;;;;;;;;;;23.80;41.50;;;;;;6174118;28;20251;-51
2022/05/14 11:39:23;;;;;;;;;;;23.60;41.40;;;;;;6157177;28;20059;-50
2022/05/14 11:42:26;;;;;;;;;;;23.70;41.40;;;;;;6162936;28;20446;-53
2022/05/14 11:45:29;;;;;;;;;;;23.90;41.50;;;;;;6153452;28;20047;-51
2022/05/14 11:48:42;;;;;;;;;;;23.90;41.50;;;;;;6168144;28;19960;-50
2022/05/14 11:51:50;;;;;;;;;;;23.70;41.40;;;;;;6155100;28;19936;-51
2022/05/14 11:54:56;;;;;;;;;;;23.90;41.50;;;;;;6164421;28;20201;-50
2022/05/14 11:58:00;;;;;;;;;;;24.00;41.60;;;;;;6168534;28;19998;-51
2022/05/14 12:01:05;;;;;;;;;;;24.00;41.60;;;;;;6166946;28;20110;-49
2022/05/14 12:04:10;;;;;;;;;;;24.00;41.70;;;;;;6155233;28;20280;-51
2022/05/14 12:07:22;;;;;;;;;;;23.70;41.50;;;;;;6161042;28;20475;-50
2022/05/14 12:10:27;;;;;;;;;;;23.80;41.50;;;;;;6158484;28;19976;-53
2022/05/14 12:13:31;;;;;;;;;;;24.00;41.60;;;;;;6148839;28;20056;-51
2022/05/14 12:16:33;;;;;;;;;;;23.90;41.60;;;;;;6152154;28;19925;-52
2022/05/14 12:19:35;;;;;;;;;;;23.70;41.50;;;;;;6162153;28;19928;-55
2022/05/14 12:22:37;;;;;;;;;;;23.90;41.60;;;;;;6151237;28;19936;-56
2022/05/14 12:25:41;;;;;;;;;;;24.10;41.80;;;;;;6150360;28;20300;-52
2022/05/14 12:28:43;;;;;;;;;;;24.10;41.80;;;;;;6169961;28;19933;-51
2022/05/14 12:35:00;;;;;;;;;;;24.10;41.80;;;;;;6168986;28;20459;-50
2022/05/14 12:38:03;;;;;;;;;;;24.00;41.80;;;;;;6169591;28;19936;-50
2022/05/14 12:41:07;;;;;;;;;;;24.00;41.80;;;;;;6144818;28;20051;-55
2022/05/14 12:44:11;;;;;;;;;;;23.90;41.80;;;;;;6150819;28;19931;-53
2022/05/14 12:47:21;;;;;;;;;;;23.90;41.80;;;;;;6168792;28;20449;-50
2022/05/14 12:50:25;;;;;;;;;;;23.90;41.80;;;;;;6164208;28;20087;-53
2022/05/14 12:53:35;;;;;;;;;;;23.90;41.80;;;;;;6148178;28;20592;-55
2022/05/14 12:56:37;;;;;;;;;;;24.10;42.00;;;;;;6134117;28;19936;-51
2022/05/14 12:59:39;;;;;;;;;;;23.90;41.90;;;;;;6163064;28;20431;-52
2022/05/14 13:02:42;;;;;;;;;;;24.00;42.00;;;;;;6163744;28;20018;-52
2022/05/14 13:05:47;;;;;;;;;;;24.00;42.00;;;;;;6167474;28;20745;-54
2022/05/14 13:08:50;;;;;;;;;;;24.30;42.10;;;;;;6151837;28;19925;-52
2022/05/14 13:11:52;;;;;;;;;;;24.00;42.00;;;;;;6170090;28;20227;-53
2022/05/14 13:14:55;;;;;;;;;;;24.40;42.20;;;;;;6170540;28;20717;-54
2022/05/14 13:17:56;;;;;;;;;;;24.10;42.10;;;;;;6149127;28;20321;-52
2022/05/14 13:21:05;;;;;;;;;;;24.00;42.00;;;;;;6171028;28;20454;-52
2022/05/14 13:24:16;;;;;;;;;;;24.00;42.40;;;;;;6176984;28;20231;-49
2022/05/14 13:27:26;;;;;;;;;;;24.20;42.20;;;;;;6160274;28;19934;-51
2022/05/14 13:30:31;;;;;;;;;;;23.90;42.10;;;;;;6169425;28;19972;-52
2022/05/14 13:33:33;;;;;;;;;;;23.90;42.10;;;;;;6162934;28;20261;-53
2022/05/14 13:39:51;;;;;;;;;;;24.10;42.20;;;;;;6144491;28;19939;-52
2022/05/14 13:42:55;;;;;;;;;;;23.80;42.10;;;;;;6153856;28;20674;-52
2022/05/14 13:45:57;;;;;;;;;;;24.00;42.20;;;;;;6170351;28;21568;-51
2022/05/14 13:48:59;;;;;;;;;;;24.40;42.40;;;;;;6151809;28;19968;-51
2022/05/14 13:52:01;;;;;;;;;;;23.80;42.10;;;;;;6143371;28;19979;-53
2022/05/14 13:55:08;;;;;;;;;;;24.10;42.30;;;;;;6161443;28;19931;-51
2022/05/14 13:58:22;;;;;;;;;;;23.80;42.20;;;;;;6151652;28;20395;-52
2022/05/14 14:01:26;;;;;;;;;;;24.00;42.20;;;;;;6151673;28;20432;-54
2022/05/14 14:04:31;;;;;;;;;;;24.10;42.30;;;;;;6169651;28;20146;-50
2022/05/14 14:07:35;;;;;;;;;;;24.10;42.40;;;;;;6166623;28;20750;-52
2022/05/14 14:10:36;;;;;;;;;;;23.90;42.30;;;;;;6163464;28;20053;-51
2022/05/14 14:13:38;;;;;;;;;;;24.00;42.40;;;;;;6164667;28;20352;-51
2022/05/14 14:16:40;;;;;;;;;;;23.70;42.20;;;;;;6165221;28;20185;-54
2022/05/14 14:19:41;;;;;;;;;;;23.80;42.40;;;;;;6165109;28;20056;-53
2022/05/14 14:22:43;;;;;;;;;;;23.70;42.40;;;;;;6167014;28;19968;-55
2022/05/14 14:25:45;;;;;;;;;;;23.90;42.40;;;;;;6165180;28;20158;-54
2022/05/14 14:28:47;;;;;;;;;;;23.90;42.40;;;;;;6166917;28;20229;-49
2022/05/14 14:31:48;;;;;;;;;;;24.00;42.50;;;;;;6150580;28;20184;-52
2022/05/14 14:34:50;;;;;;;;;;;24.20;42.60;;;;;;6167547;28;19936;-51
2022/05/14 14:37:52;;;;;;;;;;;24.10;42.60;;;;;;6144052;28;21101;-50
2022/05/14 14:40:53;;;;;;;;;;;23.90;42.50;;;;;;6161028;28;20233;-52
2022/05/14 14:43:56;;;;;;;;;;;23.70;42.40;;;;;;6159017;28;21412;-51
2022/05/14 14:46:58;;;;;;;;;;;24.00;42.50;;;;;;6158130;28;20140;-51
2022/05/14 14:50:00;;;;;;;;;;;24.50;42.80;;;;;;6163300;28;20648;-53
2022/05/14 14:53:01;;;;;;;;;;;24.50;42.80;;;;;;6166151;28;19929;-55
2022/05/14 14:56:03;;;;;;;;;;;24.00;42.60;;;;;;6155197;28;20596;-52
2022/05/14 14:59:05;;;;;;;;;;;24.10;42.60;;;;;;6154526;28;19980;-52
2022/05/14 15:02:11;;;;;;;;;;;23.90;42.50;;;;;;6166795;28;20451;-50
2022/05/14 15:05:17;;;;;;;;;;;24.00;42.60;;;;;;6164155;28;20101;-52
2022/05/14 15:08:21;;;;;;;;;;;24.10;42.80;;;;;;6170333;28;19924;-51
2022/05/14 15:11:24;;;;;;;;;;;24.00;42.70;;;;;;6166340;28;20391;-52
2022/05/14 15:14:27;;;;;;;;;;;23.90;42.70;;;;;;6167624;28;20038;-53
2022/05/14 15:17:28;;;;;;;;;;;24.00;42.70;;;;;;6172439;28;20039;-50
2022/05/14 15:20:30;;;;;;;;;;;23.90;42.70;;;;;;6165474;28;19960;-50
2022/05/14 15:23:31;;;;;;;;;;;23.90;42.70;;;;;;6152768;28;20310;-51
2022/05/14 15:26:33;;;;;;;;;;;23.90;42.70;;;;;;6160033;28;20221;-52
2022/05/14 15:29:35;;;;;;;;;;;23.90;42.70;;;;;;6153149;28;20178;-53
2022/05/14 15:32:36;;;;;;;;;;;23.80;42.70;;;;;;6170964;28;20192;-50
2022/05/14 15:35:39;;;;;;;;;;;24.00;42.80;;;;;;6134763;28;19987;-54
2022/05/14 15:38:40;;;;;;;;;;;24.00;42.80;;;;;;6160372;28;19929;-52
2022/05/14 15:41:43;;;;;;;;;;;24.00;42.80;;;;;;6150540;28;19935;-50
2022/05/14 15:44:48;;;;;;;;;;;23.80;42.70;;;;;;6162385;28;20558;-51
2022/05/14 15:47:49;;;;;;;;;;;23.80;42.70;;;;;;6168567;28;20119;-54
2022/05/14 15:50:51;;;;;;;;;;;23.80;42.80;;;;;;6149356;28;19988;-52
2022/05/14 15:53:53;;;;;;;;;;;24.00;42.80;;;;;;6156160;28;20301;-52
2022/05/14 15:56:56;;;;;;;;;;;24.00;42.80;;;;;;6149572;28;20171;-51
2022/05/14 15:59:58;;;;;;;;;;;24.00;43.50;;;;;;6156888;28;19928;-52
2022/05/14 16:03:00;;;;;;;;;;;23.90;42.80;;;;;;6157634;28;20593;-50
2022/05/14 16:06:01;;;;;;;;;;;24.00;42.90;;;;;;6167095;28;20132;-53
2022/05/14 16:09:03;;;;;;;;;;;24.00;42.90;;;;;;6172880;28;19929;-51
2022/05/14 16:18:37;;;;;;;;;;;24.20;43.00;;;;;;6167056;28;20036;-52
2022/05/14 16:21:40;;;;;;;;;;;24.00;42.90;;;;;;6139597;28;20246;-51
2022/05/14 16:24:41;;;;;;;;;;;24.00;43.00;;;;;;6157234;28;20481;-50
2022/05/14 16:27:43;;;;;;;;;;;24.20;43.10;;;;;;6171231;28;19929;-51
2022/05/14 16:30:45;;;;;;;;;;;24.00;42.90;;;;;;6153450;28;20390;-53
2022/05/14 16:33:47;;;;;;;;;;;22.90;42.40;;;;;;6167028;28;20174;-49
2022/05/14 16:36:48;;;;;;;;;;;24.20;43.00;;;;;;6166620;28;20530;-52
2022/05/14 16:39:49;;;;;;;;;;;23.90;42.80;;;;;;6170918;28;20285;-51
2022/05/14 16:42:52;;;;;;;;;;;24.00;42.90;;;;;;6164283;28;20433;-54
2022/05/14 16:45:55;;;;;;;;;;;24.00;42.90;;;;;;6169567;28;20774;-49
2022/05/14 16:48:56;;;;;;;;;;;24.00;42.90;;;;;;6166109;28;19932;-51
2022/05/14 16:51:59;;;;;;;;;;;24.20;43.00;;;;;;6163360;28;19948;-50
2022/05/14 16:55:00;;;;;;;;;;;24.20;43.00;;;;;;6162898;28;20153;-52
2022/05/14 16:58:02;;;;;;;;;;;24.10;43.00;;;;;;6173820;28;20007;-52
2022/05/14 17:01:11;;;;;;;;;;;24.10;43.00;;;;;;6175061;28;19955;-52
2022/05/14 17:04:13;;;;;;;;;;;24.10;43.00;;;;;;6161114;28;19934;-52
2022/05/14 17:07:14;;;;;;;;;;;24.10;43.00;;;;;;6175329;28;20056;-54
2022/05/14 17:10:17;;;;;;;;;;;24.10;43.00;;;;;;6173808;28;20254;-49
2022/05/14 17:13:20;;;;;;;;;;;24.10;43.00;;;;;;6159385;28;20073;-52
2022/05/14 17:16:23;;;;;;;;;;;24.20;43.10;;;;;;6178453;28;19929;-50
2022/05/14 17:19:24;;;;;;;;;;;24.10;43.10;;;;;;6180759;28;19928;-51
2022/05/14 17:22:26;;;;;;;;;;;24.10;43.20;;;;;;6156404;28;19940;-54
2022/05/14 17:25:28;;;;;;;;;;;24.20;43.20;;;;;;6158639;28;19972;-52
2022/05/14 17:28:29;;;;;;;;;;;23.80;43.00;;;;;;6176665;28;20374;-51
2022/05/14 17:31:31;;;;;;;;;;;24.20;43.40;;;;;;6180036;28;20816;-50
2022/05/14 17:34:33;;;;;;;;;;;24.30;43.20;;;;;;6180594;28;20743;-51
2022/05/14 17:40:50;;;;;;;;;;;24.20;43.20;;;;;;6176629;28;19929;-51
2022/05/14 17:43:52;;;;;;;;;;;24.30;43.20;;;;;;6173477;28;20017;-49
2022/05/14 17:46:56;;;;;;;;;;;24.20;43.20;;;;;;6175607;28;20211;-50
2022/05/14 17:49:57;;;;;;;;;;;24.10;43.20;;;;;;6176535;28;19925;-52
2022/05/14 17:52:58;;;;;;;;;;;24.20;43.30;;;;;;6179350;28;19929;-53
2022/05/14 17:56:01;;;;;;;;;;;23.90;43.10;;;;;;6179858;28;20039;-51
2022/05/14 17:59:08;;;;;;;;;;;24.00;43.10;;;;;;6179983;28;20030;-53
2022/05/14 18:02:11;;;;;;;;;;;23.90;43.20;;;;;;6175802;28;20681;-54
2022/05/14 18:05:14;;;;;;;;;;;24.30;43.40;;;;;;6173932;28;20034;-52
2022/05/14 18:08:16;;;;;;;;;;;24.20;43.30;;;;;;6159206;28;19933;-52
2022/05/14 18:14:30;;;;;;;;;;;24.30;43.50;;;;;;6173829;28;20005;-52
2022/05/14 18:17:33;;;;;;;;;;;24.00;43.30;;;;;;6167416;28;20467;-51
2022/05/14 18:20:34;;;;;;;;;;;24.20;43.40;;;;;;6153212;28;19924;-53
2022/05/14 18:23:36;;;;;;;;;;;24.10;43.40;;;;;;6150233;28;19925;-49
2022/05/14 18:26:40;;;;;;;;;;;24.30;43.50;;;;;;6178333;28;20345;-49